Pagina principale
METAR-TAF:

METAR-TAF

Aeroporti :

RAF Ascension Island

Georgetown, Ascensione

latitudine: 07-58S, longitudine: 014-24W, altezza: 86 m

Osservazione

Il bollettino è stato emesso 17 ore e 22 minuti fa, alle 06:50 UTC
Vento 12 kt da est/sud-est
Temperature 23°C
Umidità 83%
Pressione 1014 hPa
Visibilità 10 km o più
Poco nuvoloso ad un'altezza di 1200 ft
Nuvoloso ad un'altezza di 4500 ft

METAR: FHAW 150650Z 12012KT 9999 FEW012 BKN045 23/20 Q1014 TEMPO SCT015

Ora: 00:12 (00:12 UTC)

Previsione

Il bollettino è stato emesso 19 ore e 42 minuti fa, alle 04:30 UTC
Previsione valida dal 15 alle 06 UTC al 15 alle 24 UTC
Vento 13 kt da est/sud-est
Visibilità 10 km o più
Poco nuvoloso ad un'altezza di 2200 ft
Nuvoloso ad un'altezza di 4600 ft
Probabilità 30% :
Temporaneamente
dal 15 alle 06 UTC al 15 alle 10 UTC
Nubi sparse ad un'altezza di 1700 ft
rovesci di pioggia

TAF: FHAW 150430Z 1506/1524 12013KT 9999 FEW022 BKN046 PROB30 TEMPO 1506/1510 -SHRA SCT017

Osservazioni e previsioni meteorologiche di più di 4000 aeroporti (messaggi METAR e TAF).

Le stazioni disponibili sono rappresentate dai dischi gialli e rossi sulla carta.

Puntare il mouse per vedere il nome della stazione.

Clicca sopra per visualizzare le osservazioni e previsioni meteorologiche.

Per cambiare la mappa : fare clic sui pulsanti verdi con una croce nera per ingrandire, il pulsante verde con un trattino per diminuire, o sulla freccia verde per le mappe adiacenti.


METAR-TAF: